Time;durP1;ratioP1;P1;durP2;ratioP2;P2;SDS_P1;SDS_P2;PMS_P1;PMS_P2;Temp;Humidity;BMP_temperature;BMP_pressure;BME280_temperature;BME280_humidity;BME280_pressure;Samples;Min_cycle;Max_cycle;Signal;HPM_P1;HPM_P2
2021/08/24 00:01:18;;;;;;;14.85;5.70;;;;;;;11.37;71.90;100319.31;5051253;28;20053;-77
2021/08/24 00:03:44;;;;;;;19.55;6.50;;;;;;;11.46;72.05;100334.06;5055778;28;20061;-78
2021/08/24 00:06:12;;;;;;;11.88;6.03;;;;;;;11.43;72.35;100337.53;5053449;28;20060;-77
2021/08/24 00:08:40;;;;;;;20.25;6.20;;;;;;;11.30;72.11;100325.44;5016614;28;20063;-76
2021/08/24 00:11:11;;;;;;;13.45;6.28;;;;;;;11.30;72.26;100328.03;5033054;28;20076;-77
2021/08/24 00:13:38;;;;;;;14.02;5.88;;;;;;;11.22;72.60;100314.16;5022816;28;20042;-78
2021/08/24 00:16:04;;;;;;;16.42;6.32;;;;;;;11.26;72.35;100328.91;5045441;28;20041;-77
2021/08/24 00:18:31;;;;;;;11.55;5.97;;;;;;;11.08;72.44;100308.97;5041949;28;20045;-76
2021/08/24 00:21:00;;;;;;;11.45;6.18;;;;;;;11.17;72.57;100326.31;5019882;28;20128;-77
2021/08/24 00:23:28;;;;;;;14.63;6.68;;;;;;;11.08;72.27;100325.50;5037813;28;20124;-78
2021/08/24 00:25:55;;;;;;;12.07;5.70;;;;;;;11.20;72.66;100341.94;5036827;28;20203;-78
2021/08/24 00:28:22;;;;;;;13.15;6.40;;;;;;;10.98;72.19;100322.03;5005438;28;20041;-77
2021/08/24 00:30:48;;;;;;;17.50;6.55;;;;;;;11.00;72.73;100330.72;5139625;22;20384;-76
2021/08/24 00:33:15;;;;;;;13.52;6.25;;;;;;;10.97;72.80;100325.53;5019202;28;20045;-77
2021/08/24 00:35:42;;;;;;;16.48;6.68;;;;;;;11.11;72.73;100348.94;5001351;28;20053;-77
2021/08/24 00:38:11;;;;;;;15.40;6.47;;;;;;;10.93;72.87;100317.69;5022743;28;20045;-76
2021/08/24 00:40:38;;;;;;;14.80;6.43;;;;;;;11.01;73.18;100336.78;4992562;28;20045;-76
2021/08/24 00:43:14;;;;;;;13.55;6.32;;;;;;;10.93;72.84;100329.00;4997013;28;20124;-77
2021/08/24 00:45:43;;;;;;;11.57;5.93;;;;;;;10.94;72.73;100322.91;4980733;28;20094;-76
2021/08/24 00:48:09;;;;;;;17.38;6.55;;;;;;;11.02;73.42;100340.28;4997170;28;20367;-78
2021/08/24 00:50:45;;;;;;;16.25;6.30;;;;;;;10.95;72.96;100334.19;4995685;28;20052;-77
2021/08/24 00:53:14;;;;;;;18.92;6.78;;;;;;;10.98;72.99;100337.69;4995820;28;20165;-76
2021/08/24 00:55:44;;;;;;;15.75;7.25;;;;;;;11.05;72.72;100340.25;4995483;28;20136;-76
2021/08/24 00:58:13;;;;;;;21.50;6.70;;;;;;;11.04;72.88;100339.38;5013060;28;20576;-76
2021/08/24 01:00:42;;;;;;;18.00;7.90;;;;;;;10.99;73.12;100342.00;5016771;28;20042;-75
2021/08/24 01:03:10;;;;;;;13.40;7.93;;;;;;;10.93;73.25;100333.31;5018320;28;20050;-77
2021/08/24 01:05:38;;;;;;;18.35;8.05;;;;;;;10.96;73.21;100344.63;5017487;28;20056;-76
2021/08/24 01:08:07;;;;;;;14.57;8.40;;;;;;;10.96;73.30;100343.72;5030782;28;20113;-77
2021/08/24 01:10:50;;;;;;;13.82;7.57;;;;;;;10.88;73.65;100335.94;5053951;28;20084;-75
2021/08/24 01:13:35;;;;;;;14.00;7.68;;;;;;;10.90;73.67;100348.97;5052325;28;20032;-75
2021/08/24 01:16:27;;;;;;;11.13;7.20;;;;;;;10.85;73.63;100342.03;5037666;28;20052;-77
2021/08/24 01:19:31;;;;;;;12.18;7.07;;;;;;;10.75;73.51;100337.69;5020498;28;20045;-75
2021/08/24 01:22:18;;;;;;;11.65;7.07;;;;;;;10.81;73.31;100345.50;5017153;28;20052;-77
2021/08/24 01:25:02;;;;;;;12.73;7.45;;;;;;;10.82;73.68;100348.97;5015552;28;20141;-77
2021/08/24 01:27:40;;;;;;;11.77;7.72;;;;;;;10.83;73.69;100348.97;5016959;28;20507;-75
2021/08/24 01:30:17;;;;;;;15.93;7.70;;;;;;;10.84;73.53;100349.81;4998172;28;20073;-75
2021/08/24 01:32:54;;;;;;;15.30;7.55;;;;;;;10.83;74.06;100348.97;5031365;28;20377;-77
2021/08/24 01:35:45;;;;;;;17.48;7.68;;;;;;;10.85;73.81;100342.03;5030704;28;20045;-78
2021/08/24 01:38:24;;;;;;;16.25;7.05;;;;;;;10.84;73.94;100345.50;5015442;28;20087;-78
2021/08/24 01:40:55;;;;;;;21.35;6.80;;;;;;;10.93;74.20;100349.81;5030244;28;20056;-77
2021/08/24 01:43:32;;;;;;;14.63;6.50;;;;;;;10.88;73.83;100330.72;4997627;28;20158;-78
2021/08/24 01:46:12;;;;;;;17.25;7.15;;;;;;;10.76;74.20;100308.19;5013952;28;20041;-76
2021/08/24 01:48:41;;;;;;;14.90;6.95;;;;;;;11.06;74.02;100335.03;5023645;28;20097;-76
2021/08/24 01:51:17;;;;;;;13.45;6.80;;;;;;;11.11;74.00;100329.81;5028530;28;20065;-77
2021/08/24 01:53:53;;;;;;;13.15;6.65;;;;;;;11.17;74.14;100337.63;5017329;28;20099;-77
2021/08/24 01:56:22;;;;;;;14.57;6.78;;;;;;;11.17;74.26;100327.19;5015765;28;20041;-75
2021/08/24 01:58:54;;;;;;;19.38;6.72;;;;;;;11.17;74.47;100321.13;5011591;28;20050;-77
2021/08/24 02:01:28;;;;;;;14.57;6.90;;;;;;;11.25;74.63;100319.38;4996625;28;20049;-77
2021/08/24 02:03:58;;;;;;;22.67;7.22;;;;;;;11.15;74.29;100302.91;4997081;28;20053;-77
2021/08/24 02:06:26;;;;;;;18.70;6.85;;;;;;;11.36;74.46;100330.63;5010505;28;20041;-76
2021/08/24 02:08:55;;;;;;;27.45;7.63;;;;;;;11.14;74.39;100275.13;5037470;28;20057;-76
2021/08/24 02:11:25;;;;;;;25.50;7.60;;;;;;;11.31;74.61;100293.28;5015155;28;20041;-78
2021/08/24 02:13:53;;;;;;;15.80;7.63;;;;;;;11.50;74.64;100306.25;5015391;28;20045;-77
2021/08/24 02:16:24;;;;;;;21.58;6.78;;;;;;;11.53;74.22;100301.88;4996783;28;20073;-77
2021/08/24 02:18:58;;;;;;;28.00;7.10;;;;;;;11.69;74.57;100325.28;5012922;28;20094;-77
2021/08/24 02:21:32;;;;;;;20.98;7.05;;;;;;;11.68;74.28;100308.75;5013425;28;20061;-77
2021/08/24 02:24:02;;;;;;;16.77;6.53;;;;;;;11.82;74.14;100318.22;5029138;28;20049;-77
2021/08/24 02:26:29;;;;;;;14.45;5.72;;;;;;;11.92;74.32;100321.66;5013780;28;20053;-78
2021/08/24 02:28:57;;;;;;;17.60;6.72;;;;;;;11.79;74.33;100286.97;5014093;28;20513;-77
2021/08/24 02:31:43;;;;;;;21.23;7.53;;;;;;;12.02;74.40;100316.41;4994143;28;20080;-78
2021/08/24 02:34:27;;;;;;;15.43;7.18;;;;;;;12.23;74.35;100322.38;4995623;28;20053;-76
2021/08/24 02:37:11;;;;;;;14.57;7.20;;;;;;;12.13;74.16;100294.59;4993121;28;20070;-77
2021/08/24 02:39:48;;;;;;;17.75;7.25;;;;;;;12.18;73.69;100292.81;4994658;28;20046;-76
2021/08/24 02:42:24;;;;;;;16.10;7.15;;;;;;;12.46;73.86;100324.78;4977071;28;20129;-75
2021/08/24 02:44:55;;;;;;;18.30;8.13;;;;;;;12.49;73.69;100329.97;4974966;28;20039;-76
2021/08/24 02:47:22;;;;;;;15.25;7.05;;;;;;;12.45;73.65;100322.19;4974180;28;20047;-77
2021/08/24 02:49:49;;;;;;;16.67;6.70;;;;;;;12.62;73.87;100340.31;4941704;28;20423;-77
2021/08/24 02:52:16;;;;;;;19.60;6.82;;;;;;;12.51;73.74;100322.13;4973558;28;20046;-77
2021/08/24 02:54:44;;;;;;;18.10;7.35;;;;;;;12.72;73.43;100346.31;4990076;28;20042;-76
2021/08/24 02:57:10;;;;;;;21.20;7.20;;;;;;;12.74;73.14;100350.66;4974051;28;20046;-77
2021/08/24 02:59:37;;;;;;;17.90;6.97;;;;;;;12.78;73.18;100348.88;4986622;28;20360;-76
2021/08/24 03:02:06;;;;;;;15.30;7.03;;;;;;;12.74;73.20;100337.59;4994487;28;20528;-77
2021/08/24 03:04:32;;;;;;;22.27;7.93;;;;;;;12.81;73.17;100344.47;4992931;28;20124;-75
2021/08/24 03:07:04;;;;;;;16.60;8.35;;;;;;;12.92;72.97;100338.28;4985556;28;20049;-76
2021/08/24 03:09:32;;;;;;;20.27;7.35;;;;;;;13.11;72.97;100355.50;5001608;28;20089;-76
2021/08/24 03:12:29;;;;;;;33.60;7.15;;;;;;;13.24;72.83;100350.16;5008817;28;20038;-77
2021/08/24 03:15:12;;;;;;;15.38;6.40;;;;;;;13.36;72.38;100354.34;4996029;28;20046;-77
2021/08/24 03:17:50;;;;;;;17.10;7.32;;;;;;;13.45;72.78;100337.75;4994961;28;20042;-77
2021/08/24 03:20:19;;;;;;;14.60;6.10;;;;;;;13.64;72.19;100343.59;5011817;28;20046;-76
2021/08/24 03:22:46;;;;;;;11.95;6.57;;;;;;;13.88;72.13;100357.25;4996309;28;20114;-76
2021/08/24 03:25:13;;;;;;;15.45;6.55;;;;;;;13.78;71.89;100326.00;4995103;28;20034;-76
2021/08/24 03:27:43;;;;;;;16.90;6.88;;;;;;;13.98;71.69;100351.00;4995547;28;20049;-75
2021/08/24 03:30:12;;;;;;;23.73;7.13;;;;;;;14.04;71.45;100350.91;4977211;28;20038;-74
2021/08/24 03:32:38;;;;;;;11.63;6.55;;;;;;;14.16;71.18;100357.72;5028792;28;20145;-77
2021/08/24 03:35:05;;;;;;;14.20;7.00;;;;;;;14.21;71.24;100344.56;4997502;28;20069;-75
2021/08/24 03:37:30;;;;;;;18.23;7.30;;;;;;;14.20;70.92;100342.84;5021546;28;20049;-76
2021/08/24 03:39:56;;;;;;;21.40;6.70;;;;;;;14.24;70.60;100347.13;5017227;28;20056;-77
2021/08/24 03:42:22;;;;;;;17.48;6.95;;;;;;;14.23;70.93;100340.19;5018186;28;20053;-76
2021/08/24 03:44:48;;;;;;;24.23;7.25;;;;;;;14.42;70.36;100364.31;5019704;28;20042;-77
2021/08/24 03:47:15;;;;;;;21.17;8.10;;;;;;;14.34;70.47;100351.34;5014020;28;20050;-79
2021/08/24 03:49:41;;;;;;;21.15;7.28;;;;;;;14.42;70.36;100365.19;5033782;28;20096;-79
2021/08/24 03:52:09;;;;;;;20.25;6.88;;;;;;;14.49;70.19;100360.72;5031778;28;20057;-78
2021/08/24 03:54:35;;;;;;;14.60;6.93;;;;;;;14.52;69.75;100350.19;5016830;28;20117;-78
2021/08/24 03:57:01;;;;;;;15.98;6.18;;;;;;;14.65;70.12;100352.59;5033338;28;20089;-77
2021/08/24 03:59:27;;;;;;;19.80;6.63;;;;;;;14.68;69.68;100350.81;5023650;28;20049;-77
2021/08/24 04:01:53;;;;;;;16.88;6.05;;;;;;;14.85;69.48;100370.63;5014427;28;20089;-77
2021/08/24 04:04:18;;;;;;;16.10;6.10;;;;;;;14.83;69.05;100367.16;5014126;28;20011;-78
2021/08/24 04:06:44;;;;;;;12.98;6.20;;;;;;;14.81;68.89;100361.94;5023933;28;20041;-78
2021/08/24 04:09:10;;;;;;;17.83;6.20;;;;;;;14.80;68.99;100352.34;5035253;28;20061;-77
2021/08/24 04:11:36;;;;;;;11.55;5.47;;;;;;;14.95;68.79;100366.94;5052511;28;20089;-78
2021/08/24 04:14:02;;;;;;;12.40;5.90;;;;;;;14.95;68.74;100353.00;5030857;28;20042;-80
2021/08/24 04:16:28;;;;;;;13.07;5.57;;;;;;;15.08;68.60;100358.88;4986764;28;20072;-80
2021/08/24 04:18:53;;;;;;;15.93;5.95;;;;;;;15.12;68.38;100371.00;5015673;28;20151;-77
2021/08/24 04:21:20;;;;;;;14.18;5.85;;;;;;;14.94;68.38;100325.06;5016505;28;20045;-79
2021/08/24 04:23:48;;;;;;;16.48;5.78;;;;;;;15.19;68.13;100370.00;4999494;28;20038;-78
2021/08/24 04:26:17;;;;;;;11.23;5.00;;;;;;;15.25;68.13;100372.50;5022564;28;20037;-79
2021/08/24 04:28:43;;;;;;;9.50;5.45;;;;;;;15.34;67.70;100374.09;5004100;28;20066;-75
2021/08/24 04:31:14;;;;;;;15.88;6.43;;;;;;;15.34;67.76;100350.50;5022084;28;20057;-78
2021/08/24 04:33:40;;;;;;;12.85;5.50;;;;;;;15.50;67.43;100364.16;5042623;28;20137;-77
2021/08/24 04:36:07;;;;;;;16.95;6.10;;;;;;;15.51;67.02;100360.66;5043052;28;20118;-78
2021/08/24 04:38:34;;;;;;;14.30;5.82;;;;;;;15.53;67.06;100353.63;5022703;28;20049;-76
2021/08/24 04:41:01;;;;;;;16.92;5.60;;;;;;;15.58;66.61;100361.38;5041232;28;20448;-75
2021/08/24 04:43:27;;;;;;;13.30;5.88;;;;;;;15.47;66.29;100358.97;5039076;28;20037;-76
2021/08/24 04:45:53;;;;;;;13.55;6.18;;;;;;;15.47;66.52;100367.69;5005276;28;20037;-80
2021/08/24 04:48:20;;;;;;;14.48;5.90;;;;;;;15.36;66.35;100348.72;5026768;28;20045;-78
2021/08/24 04:50:46;;;;;;;14.65;5.25;;;;;;;15.69;66.89;100369.88;5030793;28;20037;-80
2021/08/24 04:53:13;;;;;;;10.10;5.47;;;;;;;15.95;66.67;100358.00;5027967;28;20044;-75
2021/08/24 04:55:39;;;;;;;11.85;5.32;;;;;;;16.50;66.32;100360.25;4993316;28;20037;-75
2021/08/24 04:58:06;;;;;;;9.77;5.22;;;;;;;16.93;65.77;100360.91;5008679;28;20065;-77
2021/08/24 05:00:33;;;;;;;16.50;5.50;;;;;;;17.46;64.88;100362.97;5005750;28;20057;-77
2021/08/24 05:03:00;;;;;;;13.13;6.03;;;;;;;17.70;64.24;100353.53;4987861;28;20038;-74
2021/08/24 05:05:26;;;;;;;16.08;5.95;;;;;;;17.91;63.41;100345.91;4988920;28;20132;-77
2021/08/24 05:07:53;;;;;;;15.25;6.22;;;;;;;18.13;62.80;100343.47;5019225;28;20126;-76
2021/08/24 05:10:19;;;;;;;16.70;6.20;;;;;;;18.16;62.39;100338.13;5036337;28;20054;-76
2021/08/24 05:12:46;;;;;;;11.95;5.80;;;;;;;18.47;62.08;100346.78;5002295;28;20127;-74
2021/08/24 05:15:12;;;;;;;17.30;6.25;;;;;;;18.93;61.72;100339.09;5035651;28;20045;-76
2021/08/24 05:17:39;;;;;;;11.90;5.50;;;;;;;19.49;61.35;100322.16;5036189;28;20128;-74
2021/08/24 05:20:06;;;;;;;19.10;6.28;;;;;;;20.79;60.33;100323.22;5036439;28;20061;-76
2021/08/24 05:22:32;;;;;;;17.63;6.70;;;;;;;22.77;58.64;100327.22;5034865;28;20037;-79
2021/08/24 05:24:58;;;;;;;14.52;6.18;;;;;;;24.65;54.95;100330.25;4985076;28;20402;-77
2021/08/24 05:27:24;;;;;;;18.00;5.80;;;;;;;26.31;51.28;100312.78;5035073;28;20040;-77
2021/08/24 05:29:50;;;;;;;21.52;10.05;;;;;;;27.91;47.90;100303.53;5017209;28;20124;-75
2021/08/24 05:32:16;;;;;;;17.88;6.10;;;;;;;29.20;44.34;100291.97;5014227;28;20137;-76
2021/08/24 05:34:42;;;;;;;13.20;5.65;;;;;;;30.49;40.75;100297.63;5014459;28;20069;-75
2021/08/24 05:37:10;;;;;;;10.93;5.25;;;;;;;31.48;38.53;100278.31;5014901;28;20560;-75
2021/08/24 05:39:36;;;;;;;12.23;6.45;;;;;;;32.59;35.35;100285.28;4997896;28;20042;-77
2021/08/24 05:42:03;;;;;;;12.52;6.20;;;;;;;33.46;32.84;100282.44;5013742;28;20046;-75
2021/08/24 05:44:29;;;;;;;13.40;6.57;;;;;;;34.24;31.48;100279.16;4981175;28;20100;-77
2021/08/24 05:46:55;;;;;;;10.98;5.80;;;;;;;35.05;29.73;100281.75;5013359;28;20033;-75
2021/08/24 05:49:22;;;;;;;12.02;5.10;;;;;;;35.81;27.98;100283.69;5013061;28;20046;-75
2021/08/24 05:51:48;;;;;;;9.57;4.90;;;;;;;36.50;26.40;100277.13;5022197;28;20078;-76
2021/08/24 05:54:13;;;;;;;10.23;4.50;;;;;;;37.11;25.55;100261.19;5014791;28;20476;-78
2021/08/24 05:56:43;;;;;;;12.27;4.28;;;;;;;37.75;24.92;100267.44;5014639;28;20038;-76
2021/08/24 05:59:09;;;;;;;8.90;3.35;;;;;;;38.36;23.28;100264.75;5006764;28;20124;-77
2021/08/24 06:01:35;;;;;;;5.72;3.35;;;;;;;38.88;22.53;100264.94;4993797;28;20488;-75
2021/08/24 06:04:01;;;;;;;7.50;3.08;;;;;;;39.38;21.70;100269.75;4993760;28;20128;-78
2021/08/24 06:06:31;;;;;;;5.43;2.40;;;;;;;39.58;20.95;100253.63;5000992;28;20041;-77
2021/08/24 06:08:57;;;;;;;6.97;2.60;;;;;;;40.32;20.32;100257.03;5014189;28;20038;-77
2021/08/24 06:11:34;;;;;;;3.10;2.20;;;;;;;40.42;18.90;100259.41;4997955;28;20100;-76
2021/08/24 06:14:02;;;;;;;4.13;2.40;;;;;;;40.32;18.81;100248.84;5031182;28;20042;-78
2021/08/24 06:16:29;;;;;;;7.22;3.08;;;;;;;40.52;18.69;100259.91;5014866;28;20084;-77
2021/08/24 06:18:55;;;;;;;6.55;2.20;;;;;;;41.31;17.55;100268.72;5030521;28;20049;-76
2021/08/24 06:21:22;;;;;;;5.53;2.20;;;;;;;41.87;16.80;100258.53;5018330;28;20115;-75
2021/08/24 06:23:48;;;;;;;3.85;2.03;;;;;;;42.47;16.56;100260.47;5018063;28;20081;-76
2021/08/24 06:26:17;;;;;;;6.93;2.80;;;;;;;42.53;16.23;100265.03;4997599;28;20043;-77
2021/08/24 06:28:43;;;;;;;5.50;2.72;;;;;;;42.77;15.48;100254.47;5012639;28;20030;-76
2021/08/24 06:31:13;;;;;;;4.07;2.47;;;;;;;43.19;15.00;100257.66;5021661;28;20417;-74
2021/08/24 06:33:54;;;;;;;;;;;;;;;;;;;;;
2021/08/24 06:36:23;;;;;;;11.95;6.57;;;;;;;43.24;14.90;100245.25;5016610;28;20047;-76
2021/08/24 06:38:52;;;;;;;5.25;3.97;;;;;;;42.88;14.53;100215.53;5033549;28;20037;-77
2021/08/24 06:41:19;;;;;;;5.72;2.63;;;;;;;43.26;14.64;100276.00;5016986;28;20132;-79
2021/08/24 06:43:45;;;;;;;7.60;2.78;;;;;;;43.50;14.36;100257.94;5016458;28;20037;-76
2021/08/24 06:46:13;;;;;;;5.22;2.08;;;;;;;43.61;13.97;100270.06;5033357;28;20137;-78
2021/08/24 06:48:41;;;;;;;3.65;2.05;;;;;;;43.66;13.96;100278.50;5015609;28;20068;-77
2021/08/24 06:51:14;;;;;;;6.53;2.17;;;;;;;43.56;13.27;100223.38;4999520;28;20394;-77
2021/08/24 06:53:41;;;;;;;11.85;2.17;;;;;;;44.21;13.60;100266.91;5014457;28;20068;-75
2021/08/24 06:56:11;;;;;;;4.78;2.30;;;;;;;43.95;13.74;100215.91;4998640;28;20049;-76
2021/08/24 06:59:13;;;;;;;4.35;2.00;;;;;;;43.51;12.96;100210.31;4998681;28;20041;-76
2021/08/24 07:01:45;;;;;;;5.63;1.98;;;;;;;43.70;13.10;100221.41;4999986;28;20037;-76
2021/08/24 07:04:11;;;;;;;4.47;2.00;;;;;;;44.28;12.79;100260.53;4999175;28;20045;-76
2021/08/24 07:06:39;;;;;;;3.00;1.70;;;;;;;44.27;12.98;100213.06;5016139;28;20091;-77
2021/08/24 07:09:06;;;;;;;3.22;1.90;;;;;;;44.63;12.65;100216.09;5015358;28;20045;-79
2021/08/24 07:11:32;;;;;;;2.05;1.50;;;;;;;44.64;12.60;100242.44;5015678;28;20132;-77
2021/08/24 07:14:17;;;;;;;3.05;1.50;;;;;;;45.19;12.18;100255.28;5016130;28;20092;-76
2021/08/24 07:16:47;;;;;;;;;;;;;;;45.52;12.13;100266.88;5000971;28;20464;-78
2021/08/24 07:19:13;;;;;;;3.15;1.40;;;;;;;45.37;11.91;100206.91;5032733;28;20313;-77
2021/08/24 07:21:50;;;;;;;4.85;1.90;;;;;;;45.17;12.10;100253.84;5015433;28;20417;-80
2021/08/24 07:27:23;;;;;;;2.80;1.67;;;;;;;44.12;12.45;100268.28;4998901;28;20077;-78
2021/08/24 07:29:49;;;;;;;3.35;1.20;;;;;;;44.36;11.84;100254.78;5014917;28;20076;-79
2021/08/24 07:32:14;;;;;;;4.88;2.22;;;;;;;44.57;11.77;100256.25;5032305;28;20625;-76
2021/08/24 07:34:40;;;;;;;2.58;1.30;;;;;;;45.03;11.26;100264.16;5033340;28;20048;-79
2021/08/24 07:37:06;;;;;;;3.05;1.48;;;;;;;45.09;11.01;100260.50;5015355;28;20041;-77
2021/08/24 07:39:32;;;;;;;3.45;1.35;;;;;;;44.25;11.10;100270.03;5015283;28;20463;-78
2021/08/24 07:41:58;;;;;;;1.63;1.30;;;;;;;44.48;11.14;100268.56;5031301;28;20047;-79
2021/08/24 07:44:26;;;;;;;3.72;1.70;;;;;;;44.69;10.96;100254.41;5014969;28;20049;-80
2021/08/24 07:46:52;;;;;;;2.83;1.70;;;;;;;44.60;10.91;100249.44;4998421;28;20037;-76
2021/08/24 07:49:18;;;;;;;4.13;1.60;;;;;;;42.98;11.47;100264.31;5033172;28;20636;-77
2021/08/24 07:51:45;;;;;;;3.70;1.60;;;;;;;40.07;13.31;100257.44;5014685;28;20041;-79
2021/08/24 07:54:11;;;;;;;2.97;1.83;;;;;;;37.93;14.69;100243.59;5015384;28;20130;-79
2021/08/24 07:56:37;;;;;;;1.77;1.40;;;;;;;39.65;14.15;100243.66;5014429;28;20447;-76
2021/08/24 07:59:03;;;;;;;5.63;1.60;;;;;;;41.38;13.13;100260.53;5014696;28;20128;-77
2021/08/24 08:01:28;;;;;;;5.30;1.60;;;;;;;39.14;13.59;100252.72;5014791;28;20195;-76
2021/08/24 08:03:54;;;;;;;2.15;1.50;;;;;;;38.64;14.25;100264.16;5014837;28;20064;-79
2021/08/24 08:06:20;;;;;;;2.58;2.00;;;;;;;39.88;13.16;100245.34;4982794;28;20127;-79
2021/08/24 08:08:46;;;;;;;4.32;2.35;;;;;;;39.47;12.55;100239.50;5016432;28;20045;-78
2021/08/24 08:11:12;;;;;;;2.35;1.63;;;;;;;37.43;14.00;100277.50;5019256;28;20444;-77
2021/08/24 08:13:39;;;;;;;2.00;1.70;;;;;;;37.80;13.95;100246.03;5037091;28;20038;-76
2021/08/24 08:16:05;;;;;;;2.83;1.70;;;;;;;36.88;14.43;100250.25;4998954;28;20042;-76
2021/08/24 08:18:31;;;;;;;2.63;1.60;;;;;;;34.80;15.47;100238.34;5032130;28;20037;-78
2021/08/24 08:20:57;;;;;;;3.13;1.77;;;;;;;33.25;16.83;100242.25;4981739;28;20417;-77
2021/08/24 08:23:23;;;;;;;2.60;1.60;;;;;;;32.97;18.28;100267.34;5015642;28;20045;-75
2021/08/24 08:25:49;;;;;;;4.03;2.15;;;;;;;35.53;16.67;100262.31;5013224;28;20330;-77
2021/08/24 08:28:28;;;;;;;5.38;2.17;;;;;;;37.85;15.25;100243.63;5020097;28;20509;-76
2021/08/24 08:30:54;;;;;;;2.85;1.60;;;;;;;39.30;14.18;100225.28;5025014;28;20144;-80
2021/08/24 08:33:20;;;;;;;2.55;1.65;;;;;;;40.68;13.29;100214.28;5004447;28;20037;-77
2021/08/24 08:35:46;;;;;;;3.10;1.50;;;;;;;40.27;13.02;100227.66;5042534;28;20092;-78
2021/08/24 08:38:11;;;;;;;4.55;1.83;;;;;;;38.78;13.67;100227.13;5012881;28;20041;-77
2021/08/24 08:40:54;;;;;;;3.38;1.90;;;;;;;37.00;14.61;100238.03;5047939;28;20041;-76
2021/08/24 08:43:23;;;;;;;2.42;1.80;;;;;;;35.48;15.44;100237.63;5029346;28;20043;-80
2021/08/24 08:45:51;;;;;;;2.40;1.50;;;;;;;34.63;16.28;100241.97;5043946;28;20052;-78
2021/08/24 08:48:42;;;;;;;2.90;1.85;;;;;;;33.98;16.76;100221.59;5045902;28;20041;-77
2021/08/24 08:51:37;;;;;;;3.00;1.90;;;;;;;33.88;16.67;100233.28;5039204;28;20048;-81
2021/08/24 08:54:16;;;;;;;2.65;1.88;;;;;;;33.47;17.33;100241.84;5035514;28;20103;-77
2021/08/24 08:57:02;;;;;;;2.28;1.80;;;;;;;34.75;16.96;100240.72;5017200;28;20041;-78
2021/08/24 08:59:53;;;;;;;5.15;2.25;;;;;;;36.62;15.06;100233.22;5035009;28;20041;-78
2021/08/24 09:02:22;;;;;;;3.75;1.83;;;;;;;36.71;14.75;100231.34;5001641;28;20126;-77
2021/08/24 09:04:49;;;;;;;2.60;1.80;;;;;;;36.86;15.11;100236.88;5035642;28;20113;-77
2021/08/24 09:07:53;;;;;;;3.40;2.08;;;;;;;37.02;13.67;100233.28;5036330;28;20091;-75
2021/08/24 09:10:28;;;;;;;4.93;1.90;;;;;;;35.76;14.73;100227.34;4988264;28;20053;-78
2021/08/24 09:13:04;;;;;;;5.13;1.90;;;;;;;37.47;14.74;100219.16;5002258;28;20128;-77
2021/08/24 09:15:59;;;;;;;3.42;1.80;;;;;;;39.43;13.08;100230.03;5001789;28;20056;-78
2021/08/24 09:18:47;;;;;;;2.83;1.73;;;;;;;40.48;12.41;100228.63;5037062;28;20524;-80
2021/08/24 09:21:36;;;;;;;4.20;2.03;;;;;;;40.94;12.09;100225.31;5017219;28;20049;-79
2021/08/24 09:24:08;;;;;;;2.95;1.70;;;;;;;40.65;11.82;100216.38;5034885;28;20564;-76
2021/08/24 09:27:27;;;;;;;3.42;2.22;;;;;;;40.66;11.46;100217.25;5017242;28;20531;-76
2021/08/24 09:29:53;;;;;;;2.95;1.92;;;;;;;41.13;11.61;100201.06;4943866;28;20054;-75
2021/08/24 09:32:23;;;;;;;4.15;1.85;;;;;;;41.82;11.06;100196.34;5014812;28;20054;-77
2021/08/24 09:34:59;;;;;;;5.40;2.30;;;;;;;42.45;10.62;100186.84;4989573;28;20044;-77
2021/08/24 09:37:36;;;;;;;4.28;2.25;;;;;;;40.57;11.12;100218.41;5015941;28;20059;-80
2021/08/24 09:40:06;;;;;;;3.78;2.35;;;;;;;37.77;12.59;100216.53;5016220;28;20056;-78
2021/08/24 09:42:42;;;;;;;2.88;1.98;;;;;;;35.70;13.27;100206.38;5013917;28;20090;-77
2021/08/24 09:45:20;;;;;;;5.70;2.50;;;;;;;34.48;14.56;100228.22;5026370;28;20056;-77
2021/08/24 09:47:58;;;;;;;5.82;2.20;;;;;;;33.45;15.82;100234.91;5016842;28;20219;-79
2021/08/24 09:50:31;;;;;;;4.00;2.22;;;;;;;32.65;16.40;100225.47;5035454;28;20045;-79
2021/08/24 09:52:59;;;;;;;7.00;2.15;;;;;;;32.00;17.41;100218.06;5016631;28;20467;-76
2021/08/24 09:55:28;;;;;;;5.60;2.00;;;;;;;31.80;17.77;100231.53;5017413;28;20037;-79
2021/08/24 09:58:06;;;;;;;8.93;2.35;;;;;;;32.48;17.69;100228.94;5016913;28;20045;-76
2021/08/24 10:01:17;;;;;;;3.17;2.10;;;;;;;35.18;16.66;100199.34;5016097;28;20037;-77
2021/08/24 10:03:48;;;;;;;5.13;2.10;;;;;;;35.25;15.48;100185.00;5017184;28;20052;-76
2021/08/24 10:06:37;;;;;;;3.38;2.20;;;;;;;34.00;15.71;100196.13;4996049;28;20037;-77
2021/08/24 10:09:28;;;;;;;;;;;;;;;;;;;;;
2021/08/24 10:12:26;;;;;;;5.10;2.15;;;;;;;31.18;17.45;100231.72;4980995;28;20509;-75
2021/08/24 10:15:24;;;;;;;7.53;2.55;;;;;;;29.46;18.25;100169.28;4997479;28;20046;-78
2021/08/24 10:19:04;;;;;;;6.30;3.15;;;;;;;28.86;19.51;100241.09;4996674;28;20053;-76
2021/08/24 10:25:46;;;;;;;3.70;2.22;;;;;;;27.23;21.24;100198.91;4962591;28;20509;-76
2021/08/24 10:29:16;;;;;;;;;;;;;;;;;;;;;
2021/08/24 10:32:10;;;;;;;4.10;2.42;;;;;;;26.65;22.92;100240.28;5004632;28;20050;-78
2021/08/24 10:35:18;;;;;;;3.65;2.50;;;;;;;25.74;23.03;100098.00;5030504;28;20064;-76
2021/08/24 10:37:50;;;;;;;3.90;2.10;;;;;;;26.29;23.05;100172.53;5021977;28;20041;-75
2021/08/24 10:40:43;;;;;;;6.97;2.25;;;;;;;27.22;22.80;100251.47;5032883;28;20049;-76
2021/08/24 10:43:23;;;;;;;3.92;1.90;;;;;;;27.51;22.44;100244.03;5016200;28;20041;-77
2021/08/24 10:46:00;;;;;;;5.50;2.10;;;;;;;27.92;22.58;100252.59;5015497;28;20047;-76
2021/08/24 10:48:30;;;;;;;2.70;2.00;;;;;;;28.29;22.07;100242.81;4998932;28;20049;-74
2021/08/24 10:51:04;;;;;;;3.08;2.10;;;;;;;28.41;21.74;100239.19;4997105;28;20063;-77
2021/08/24 10:53:52;;;;;;;4.38;2.00;;;;;;;28.32;21.57;100234.56;5032490;28;20816;-77
2021/08/24 10:56:26;;;;;;;2.60;1.85;;;;;;;28.10;21.96;100249.53;5016533;28;20103;-76
2021/08/24 10:59:19;;;;;;;4.22;1.73;;;;;;;28.14;21.87;100244.84;5010435;28;20045;-74
2021/08/24 11:01:51;;;;;;;3.28;1.80;;;;;;;28.08;22.11;100248.81;4963593;28;20045;-75
2021/08/24 11:05:00;;;;;;;3.15;2.03;;;;;;;28.02;22.31;100255.47;4994967;28;20091;-78
2021/08/24 11:07:35;;;;;;;2.03;1.73;;;;;;;27.92;22.34;100217.00;4992159;28;20049;-77
2021/08/24 11:10:29;;;;;;;4.47;2.47;;;;;;;28.02;21.73;100238.56;5014879;28;20049;-76
2021/08/24 11:13:30;;;;;;;4.43;2.35;;;;;;;27.77;21.34;100235.06;4997295;28;20041;-76
2021/08/24 11:16:21;;;;;;;4.18;2.20;;;;;;;27.70;21.68;100232.00;4951403;29;20051;-76
2021/08/24 11:19:01;;;;;;;3.53;2.47;;;;;;;27.64;21.54;100227.09;4956973;28;20057;-76
2021/08/24 11:21:54;;;;;;;3.25;1.88;;;;;;;27.33;22.04;100218.66;5002880;28;20505;-76
2021/08/24 11:24:38;;;;;;;3.88;2.63;;;;;;;26.98;21.88;100214.88;5010653;28;20046;-75
2021/08/24 11:27:12;;;;;;;3.63;1.90;;;;;;;26.70;22.56;100215.97;5011816;28;20034;-78
2021/08/24 11:29:59;;;;;;;3.28;2.00;;;;;;;25.54;22.63;100068.25;5011101;28;20136;-78
2021/08/24 11:32:58;;;;;;;3.13;2.28;;;;;;;26.37;23.07;100204.84;4993693;28;21072;-76
2021/08/24 11:35:56;;;;;;;4.68;2.20;;;;;;;26.16;23.42;100208.00;4945188;28;20059;-77
2021/08/24 11:38:44;;;;;;;7.68;2.42;;;;;;;25.33;23.37;100097.16;5031988;28;20513;-77
2021/08/24 11:41:22;;;;;;;10.65;3.00;;;;;;;25.70;23.61;100195.09;5032208;28;20126;-76
2021/08/24 11:44:28;;;;;;;8.55;2.50;;;;;;;25.31;24.06;100186.06;5014273;28;20493;-75
2021/08/24 11:47:16;;;;;;;11.68;8.40;;;;;;;25.19;24.41;100206.34;5001738;28;20421;-77
2021/08/24 11:50:48;;;;;;;7.55;3.50;;;;;;;24.33;24.38;100075.94;5013245;28;20075;-78
2021/08/24 11:53:44;;;;;;;4.25;2.60;;;;;;;25.19;24.72;100212.53;5018475;28;20454;-76
2021/08/24 11:56:31;;;;;;;6.32;2.30;;;;;;;25.19;24.75;100217.84;5015043;28;20141;-78
2021/08/24 11:59:06;;;;;;;7.85;3.70;;;;;;;24.64;24.31;100126.38;5028784;28;20045;-75
2021/08/24 12:01:33;;;;;;;4.25;2.65;;;;;;;24.35;24.53;100068.75;4998205;28;20417;-76